Hlavní strana
METAR-TAF:

METAR-TAF

Letiště :

Ventspils, Lotyšsko

zeměpisná šířka: 57-21-28N, zeměpisná délka: 021-32-39E, výška: 6 m

Aktuální stav počasí

Zpráva byla vytvořena před 6 minutami, v 17:20 UTC
Severozápadní vítr 17 kt
Teplota -1°C
Vlhkost vzduchu 100%
Tlak 1006 hPa
Viditelnost: 1900 m
Oblačno až skoro zataženo ve výšce 400 ft
Oblačno až skoro zataženo ve výšce 1100 ft
Oblačno až skoro zataženo ve výšce 3000 ft
silné sněžení

METAR: EVVA 071720Z AUTO 31017KT 1900 +SN BKN004 BKN011 BKN030 M01/M01 Q1006

Čas: 19:26 (17:26 UTC)


TAF: chybějící

Stav a předpovědi počasí z více než 4 000 letišť (zprávy METAR a TAF).

Červené a žluté tečky na mapě představují dostupné meteorologické stanice.

Když kurzor umístíte na tečku, zobrazí se název stanice.

Pak kliknutím zobrazíte stav a předpověď počasí.

Chcete-li změnit mapu, kliknutím na zelené tlačítko se znaménkem +mapu přiblížíte, kliknutím na zelené tlačítko se znaménkem – mapu oddálíte a kliknutím na zelené šipky přejdete na sousední mapy.


METAR-TAF: